sensor_id;sensor_type;location;lat;lon;timestamp;temperature;humidity
67868;SHT31;54672;46.096;14.470;2022-09-02T00:01:30;14.05;96.06
67868;SHT31;54672;46.096;14.470;2022-09-02T00:04:01;13.96;96.37
67868;SHT31;54672;46.096;14.470;2022-09-02T00:06:28;13.92;96.39
67868;SHT31;54672;46.096;14.470;2022-09-02T00:08:54;13.90;96.57
67868;SHT31;54672;46.096;14.470;2022-09-02T00:11:23;13.83;96.77
67868;SHT31;54672;46.096;14.470;2022-09-02T00:13:50;13.83;96.92
67868;SHT31;54672;46.096;14.470;2022-09-02T00:16:16;13.82;96.96
67868;SHT31;54672;46.096;14.470;2022-09-02T00:18:42;13.82;96.76
67868;SHT31;54672;46.096;14.470;2022-09-02T00:21:09;13.76;96.67
67868;SHT31;54672;46.096;14.470;2022-09-02T00:23:36;13.75;96.76
67868;SHT31;54672;46.096;14.470;2022-09-02T00:26:03;13.71;96.81
67868;SHT31;54672;46.096;14.470;2022-09-02T00:28:28;13.66;96.95
67868;SHT31;54672;46.096;14.470;2022-09-02T00:30:54;13.71;96.91
67868;SHT31;54672;46.096;14.470;2022-09-02T00:33:19;13.72;96.85
67868;SHT31;54672;46.096;14.470;2022-09-02T00:35:45;13.69;96.87
67868;SHT31;54672;46.096;14.470;2022-09-02T00:38:10;13.74;96.88
67868;SHT31;54672;46.096;14.470;2022-09-02T00:40:36;13.71;96.82
67868;SHT31;54672;46.096;14.470;2022-09-02T00:43:06;13.72;96.79
67868;SHT31;54672;46.096;14.470;2022-09-02T00:45:32;13.68;96.73
67868;SHT31;54672;46.096;14.470;2022-09-02T00:47:57;13.71;96.77
67868;SHT31;54672;46.096;14.470;2022-09-02T00:50:26;13.66;96.72
67868;SHT31;54672;46.096;14.470;2022-09-02T00:53:02;13.64;96.59
67868;SHT31;54672;46.096;14.470;2022-09-02T00:55:35;13.62;96.72
67868;SHT31;54672;46.096;14.470;2022-09-02T00:58:07;13.55;96.65
67868;SHT31;54672;46.096;14.470;2022-09-02T01:00:37;13.51;96.86
67868;SHT31;54672;46.096;14.470;2022-09-02T01:03:09;13.44;96.95
67868;SHT31;54672;46.096;14.470;2022-09-02T01:05:39;13.38;97.02
67868;SHT31;54672;46.096;14.470;2022-09-02T01:08:11;13.34;97.19
67868;SHT31;54672;46.096;14.470;2022-09-02T01:10:37;13.30;97.22
67868;SHT31;54672;46.096;14.470;2022-09-02T01:13:07;13.25;97.33
67868;SHT31;54672;46.096;14.470;2022-09-02T01:15:35;13.18;97.42
67868;SHT31;54672;46.096;14.470;2022-09-02T01:18:03;13.17;97.52
67868;SHT31;54672;46.096;14.470;2022-09-02T01:20:30;13.08;97.72
67868;SHT31;54672;46.096;14.470;2022-09-02T01:22:55;13.00;97.79
67868;SHT31;54672;46.096;14.470;2022-09-02T01:25:25;13.02;97.86
67868;SHT31;54672;46.096;14.470;2022-09-02T01:27:52;12.97;97.97
67868;SHT31;54672;46.096;14.470;2022-09-02T01:30:23;12.94;97.98
67868;SHT31;54672;46.096;14.470;2022-09-02T01:32:49;12.96;97.84
67868;SHT31;54672;46.096;14.470;2022-09-02T01:35:15;12.90;97.87
67868;SHT31;54672;46.096;14.470;2022-09-02T01:37:41;12.89;97.82
67868;SHT31;54672;46.096;14.470;2022-09-02T01:40:10;12.87;97.87
67868;SHT31;54672;46.096;14.470;2022-09-02T01:42:37;12.79;98.10
67868;SHT31;54672;46.096;14.470;2022-09-02T01:45:03;12.77;98.17
67868;SHT31;54672;46.096;14.470;2022-09-02T01:47:29;12.76;98.30
67868;SHT31;54672;46.096;14.470;2022-09-02T01:49:55;12.73;98.46
67868;SHT31;54672;46.096;14.470;2022-09-02T01:52:22;12.70;98.43
67868;SHT31;54672;46.096;14.470;2022-09-02T01:54:48;12.65;98.62
67868;SHT31;54672;46.096;14.470;2022-09-02T01:57:14;12.63;98.70
67868;SHT31;54672;46.096;14.470;2022-09-02T01:59:40;12.57;98.69
67868;SHT31;54672;46.096;14.470;2022-09-02T02:02:08;12.55;98.79
67868;SHT31;54672;46.096;14.470;2022-09-02T02:04:33;12.55;98.84
67868;SHT31;54672;46.096;14.470;2022-09-02T02:06:59;12.48;98.86
67868;SHT31;54672;46.096;14.470;2022-09-02T02:09:24;12.44;99.10
67868;SHT31;54672;46.096;14.470;2022-09-02T02:11:51;12.36;99.24
67868;SHT31;54672;46.096;14.470;2022-09-02T02:14:17;12.28;99.32
67868;SHT31;54672;46.096;14.470;2022-09-02T02:16:42;12.22;99.48
67868;SHT31;54672;46.096;14.470;2022-09-02T02:19:08;12.17;99.58
67868;SHT31;54672;46.096;14.470;2022-09-02T02:21:33;12.11;99.76
67868;SHT31;54672;46.096;14.470;2022-09-02T02:23:58;12.10;99.88
67868;SHT31;54672;46.096;14.470;2022-09-02T02:26:26;12.13;99.94
67868;SHT31;54672;46.096;14.470;2022-09-02T02:28:52;12.11;99.99
67868;SHT31;54672;46.096;14.470;2022-09-02T02:31:18;12.07;99.99
67868;SHT31;54672;46.096;14.470;2022-09-02T02:33:43;12.10;99.99
67868;SHT31;54672;46.096;14.470;2022-09-02T02:36:09;12.08;99.99
67868;SHT31;54672;46.096;14.470;2022-09-02T02:38:36;12.10;99.99
67868;SHT31;54672;46.096;14.470;2022-09-02T02:41:02;12.07;99.99
67868;SHT31;54672;46.096;14.470;2022-09-02T02:43:29;12.05;99.99
67868;SHT31;54672;46.096;14.470;2022-09-02T02:45:54;12.01;99.99
67868;SHT31;54672;46.096;14.470;2022-09-02T02:48:20;12.02;99.99
67868;SHT31;54672;46.096;14.470;2022-09-02T02:50:46;12.01;99.99
67868;SHT31;54672;46.096;14.470;2022-09-02T02:53:12;11.98;99.99
67868;SHT31;54672;46.096;14.470;2022-09-02T02:55:38;11.94;99.99
67868;SHT31;54672;46.096;14.470;2022-09-02T02:58:04;11.87;99.99
67868;SHT31;54672;46.096;14.470;2022-09-02T03:00:30;11.81;99.99
67868;SHT31;54672;46.096;14.470;2022-09-02T03:02:59;11.83;99.99
67868;SHT31;54672;46.096;14.470;2022-09-02T03:05:25;11.83;99.99
67868;SHT31;54672;46.096;14.470;2022-09-02T03:07:51;11.87;99.99
67868;SHT31;54672;46.096;14.470;2022-09-02T03:10:17;11.85;99.99
67868;SHT31;54672;46.096;14.470;2022-09-02T03:12:43;11.87;99.99
67868;SHT31;54672;46.096;14.470;2022-09-02T03:15:13;11.85;99.99
67868;SHT31;54672;46.096;14.470;2022-09-02T03:17:42;11.91;99.99
67868;SHT31;54672;46.096;14.470;2022-09-02T03:20:08;11.95;99.99
67868;SHT31;54672;46.096;14.470;2022-09-02T03:22:33;11.98;99.99
67868;SHT31;54672;46.096;14.470;2022-09-02T03:25:02;11.98;99.99
67868;SHT31;54672;46.096;14.470;2022-09-02T03:27:28;11.99;99.99
67868;SHT31;54672;46.096;14.470;2022-09-02T03:29:53;12.04;99.99
67868;SHT31;54672;46.096;14.470;2022-09-02T03:32:18;11.91;99.76
67868;SHT31;54672;46.096;14.470;2022-09-02T03:34:44;11.81;99.75
67868;SHT31;54672;46.096;14.470;2022-09-02T03:37:09;11.77;99.79
67868;SHT31;54672;46.096;14.470;2022-09-02T03:39:37;11.77;99.89
67868;SHT31;54672;46.096;14.470;2022-09-02T03:42:03;11.74;99.89
67868;SHT31;54672;46.096;14.470;2022-09-02T03:44:29;11.77;99.88
67868;SHT31;54672;46.096;14.470;2022-09-02T03:46:54;11.83;99.87
67868;SHT31;54672;46.096;14.470;2022-09-02T03:49:19;11.76;99.58
67868;SHT31;54672;46.096;14.470;2022-09-02T03:51:45;11.76;99.65
67868;SHT31;54672;46.096;14.470;2022-09-02T03:54:10;11.73;99.54
67868;SHT31;54672;46.096;14.470;2022-09-02T03:56:36;11.70;99.75
67868;SHT31;54672;46.096;14.470;2022-09-02T03:59:03;11.60;99.90
67868;SHT31;54672;46.096;14.470;2022-09-02T04:01:28;11.63;99.94
67868;SHT31;54672;46.096;14.470;2022-09-02T04:03:54;11.66;99.96
67868;SHT31;54672;46.096;14.470;2022-09-02T04:06:22;11.62;99.97
67868;SHT31;54672;46.096;14.470;2022-09-02T04:08:49;11.64;99.91
67868;SHT31;54672;46.096;14.470;2022-09-02T04:11:19;11.62;99.71
67868;SHT31;54672;46.096;14.470;2022-09-02T04:13:46;11.67;99.80
67868;SHT31;54672;46.096;14.470;2022-09-02T04:16:15;11.71;99.63
67868;SHT31;54672;46.096;14.470;2022-09-02T04:18:41;11.69;99.76
67868;SHT31;54672;46.096;14.470;2022-09-02T04:21:07;11.64;99.76
67868;SHT31;54672;46.096;14.470;2022-09-02T04:23:33;11.64;99.80
67868;SHT31;54672;46.096;14.470;2022-09-02T04:26:03;11.62;99.87
67868;SHT31;54672;46.096;14.470;2022-09-02T04:28:28;11.57;99.76
67868;SHT31;54672;46.096;14.470;2022-09-02T04:30:54;11.59;99.87
67868;SHT31;54672;46.096;14.470;2022-09-02T04:33:19;11.62;99.80
67868;SHT31;54672;46.096;14.470;2022-09-02T04:35:46;11.56;99.68
67868;SHT31;54672;46.096;14.470;2022-09-02T04:38:14;11.52;99.84
67868;SHT31;54672;46.096;14.470;2022-09-02T04:40:41;11.44;99.99
67868;SHT31;54672;46.096;14.470;2022-09-02T04:43:07;11.54;99.98
67868;SHT31;54672;46.096;14.470;2022-09-02T04:45:33;11.46;99.99
67868;SHT31;54672;46.096;14.470;2022-09-02T04:47:59;11.47;99.99
67868;SHT31;54672;46.096;14.470;2022-09-02T04:50:24;11.47;99.99
67868;SHT31;54672;46.096;14.470;2022-09-02T04:52:50;11.57;99.99
67868;SHT31;54672;46.096;14.470;2022-09-02T04:55:15;11.77;99.81
67868;SHT31;54672;46.096;14.470;2022-09-02T04:57:41;11.95;99.58
67868;SHT31;54672;46.096;14.470;2022-09-02T05:00:07;12.10;99.02
67868;SHT31;54672;46.096;14.470;2022-09-02T05:02:33;12.26;97.86
67868;SHT31;54672;46.096;14.470;2022-09-02T05:04:59;12.46;97.32
67868;SHT31;54672;46.096;14.470;2022-09-02T05:07:24;12.59;96.84
67868;SHT31;54672;46.096;14.470;2022-09-02T05:09:57;11.98;98.18
67868;SHT31;54672;46.096;14.470;2022-09-02T05:12:23;11.98;98.78
67868;SHT31;54672;46.096;14.470;2022-09-02T05:14:53;11.78;99.32
67868;SHT31;54672;46.096;14.470;2022-09-02T05:17:21;11.64;99.75
67868;SHT31;54672;46.096;14.470;2022-09-02T05:19:47;11.94;99.64
67868;SHT31;54672;46.096;14.470;2022-09-02T05:22:12;12.01;99.04
67868;SHT31;54672;46.096;14.470;2022-09-02T05:24:38;12.17;98.79
67868;SHT31;54672;46.096;14.470;2022-09-02T05:27:04;11.98;98.73
67868;SHT31;54672;46.096;14.470;2022-09-02T05:29:29;12.22;98.66
67868;SHT31;54672;46.096;14.470;2022-09-02T05:31:55;12.18;97.98
67868;SHT31;54672;46.096;14.470;2022-09-02T05:34:20;12.15;97.92
67868;SHT31;54672;46.096;14.470;2022-09-02T05:36:46;11.84;98.85
67868;SHT31;54672;46.096;14.470;2022-09-02T05:39:12;11.73;99.42
67868;SHT31;54672;46.096;14.470;2022-09-02T05:41:38;11.87;99.85
67868;SHT31;54672;46.096;14.470;2022-09-02T05:44:05;12.01;99.43
67868;SHT31;54672;46.096;14.470;2022-09-02T05:46:32;11.77;99.55
67868;SHT31;54672;46.096;14.470;2022-09-02T05:48:57;11.83;99.72
67868;SHT31;54672;46.096;14.470;2022-09-02T05:52:02;11.99;99.55
67868;SHT31;54672;46.096;14.470;2022-09-02T05:54:33;12.20;99.08
67868;SHT31;54672;46.096;14.470;2022-09-02T05:57:03;12.04;99.16
67868;SHT31;54672;46.096;14.470;2022-09-02T05:59:30;12.07;99.10
67868;SHT31;54672;46.096;14.470;2022-09-02T06:01:57;11.99;99.16
67868;SHT31;54672;46.096;14.470;2022-09-02T06:04:23;12.05;98.89
67868;SHT31;54672;46.096;14.470;2022-09-02T06:06:49;12.32;98.65
67868;SHT31;54672;46.096;14.470;2022-09-02T06:09:18;12.60;97.95
67868;SHT31;54672;46.096;14.470;2022-09-02T06:11:44;12.31;97.92
67868;SHT31;54672;46.096;14.470;2022-09-02T06:14:14;12.25;98.15
67868;SHT31;54672;46.096;14.470;2022-09-02T06:16:42;12.31;98.55
67868;SHT31;54672;46.096;14.470;2022-09-02T06:19:07;12.32;98.29
67868;SHT31;54672;46.096;14.470;2022-09-02T06:21:36;12.32;98.21
67868;SHT31;54672;46.096;14.470;2022-09-02T06:24:04;12.35;98.32
67868;SHT31;54672;46.096;14.470;2022-09-02T06:26:30;12.35;98.16
67868;SHT31;54672;46.096;14.470;2022-09-02T06:28:56;12.46;98.20
67868;SHT31;54672;46.096;14.470;2022-09-02T06:31:22;12.57;97.36
67868;SHT31;54672;46.096;14.470;2022-09-02T06:33:51;12.46;98.12
67868;SHT31;54672;46.096;14.470;2022-09-02T06:36:18;12.66;97.65
67868;SHT31;54672;46.096;14.470;2022-09-02T06:38:46;13.04;96.63
67868;SHT31;54672;46.096;14.470;2022-09-02T06:41:14;12.89;96.99
67868;SHT31;54672;46.096;14.470;2022-09-02T06:43:41;12.76;97.04
67868;SHT31;54672;46.096;14.470;2022-09-02T06:46:07;12.79;97.37
67868;SHT31;54672;46.096;14.470;2022-09-02T06:48:33;12.80;97.40
67868;SHT31;54672;46.096;14.470;2022-09-02T06:50:59;13.03;96.51
67868;SHT31;54672;46.096;14.470;2022-09-02T06:53:25;13.03;96.73
67868;SHT31;54672;46.096;14.470;2022-09-02T06:55:50;13.41;95.85
67868;SHT31;54672;46.096;14.470;2022-09-02T06:58:16;13.92;94.45
67868;SHT31;54672;46.096;14.470;2022-09-02T07:00:42;13.75;93.49
67868;SHT31;54672;46.096;14.470;2022-09-02T07:03:08;14.24;92.70
67868;SHT31;54672;46.096;14.470;2022-09-02T07:06:09;13.99;92.77
67868;SHT31;54672;46.096;14.470;2022-09-02T07:08:40;14.61;89.87
67868;SHT31;54672;46.096;14.470;2022-09-02T07:11:07;16.87;81.81
67868;SHT31;54672;46.096;14.470;2022-09-02T07:13:39;17.40;78.84
67868;SHT31;54672;46.096;14.470;2022-09-02T07:16:04;18.39;75.62
67868;SHT31;54672;46.096;14.470;2022-09-02T07:18:32;18.85;72.46
67868;SHT31;54672;46.096;14.470;2022-09-02T07:20:57;18.40;75.44
67868;SHT31;54672;46.096;14.470;2022-09-02T07:23:23;20.55;68.73
67868;SHT31;54672;46.096;14.470;2022-09-02T07:25:48;21.14;63.88
67868;SHT31;54672;46.096;14.470;2022-09-02T07:28:14;20.55;65.49
67868;SHT31;54672;46.096;14.470;2022-09-02T07:30:41;19.04;71.38
67868;SHT31;54672;46.096;14.470;2022-09-02T07:33:09;20.93;67.43
67868;SHT31;54672;46.096;14.470;2022-09-02T07:35:34;22.28;62.18
67868;SHT31;54672;46.096;14.470;2022-09-02T07:38:01;22.66;60.14
67868;SHT31;54672;46.096;14.470;2022-09-02T07:40:28;23.54;58.20
67868;SHT31;54672;46.096;14.470;2022-09-02T07:42:54;24.34;55.85
67868;SHT31;54672;46.096;14.470;2022-09-02T07:45:20;23.21;57.51
67868;SHT31;54672;46.096;14.470;2022-09-02T07:47:45;20.09;64.82
67868;SHT31;54672;46.096;14.470;2022-09-02T07:50:11;21.82;62.25
67868;SHT31;54672;46.096;14.470;2022-09-02T07:52:38;21.87;60.77
67868;SHT31;54672;46.096;14.470;2022-09-02T07:55:04;22.48;58.70
67868;SHT31;54672;46.096;14.470;2022-09-02T07:57:30;22.86;57.25
67868;SHT31;54672;46.096;14.470;2022-09-02T07:59:56;21.60;61.70
67868;SHT31;54672;46.096;14.470;2022-09-02T08:02:21;21.55;61.01
67868;SHT31;54672;46.096;14.470;2022-09-02T08:04:47;20.61;63.74
67868;SHT31;54672;46.096;14.470;2022-09-02T08:07:12;21.88;60.45
67868;SHT31;54672;46.096;14.470;2022-09-02T08:09:38;21.73;60.42
67868;SHT31;54672;46.096;14.470;2022-09-02T08:12:04;20.47;63.22
67868;SHT31;54672;46.096;14.470;2022-09-02T08:14:30;19.49;66.59
67868;SHT31;54672;46.096;14.470;2022-09-02T08:16:56;18.13;70.35
67868;SHT31;54672;46.096;14.470;2022-09-02T08:19:22;19.33;68.31
67868;SHT31;54672;46.096;14.470;2022-09-02T08:21:49;19.58;67.28
67868;SHT31;54672;46.096;14.470;2022-09-02T08:24:14;19.19;67.85
67868;SHT31;54672;46.096;14.470;2022-09-02T08:26:41;20.14;66.92
67868;SHT31;54672;46.096;14.470;2022-09-02T08:29:07;19.80;66.73
67868;SHT31;54672;46.096;14.470;2022-09-02T08:31:35;19.16;67.92
67868;SHT31;54672;46.096;14.470;2022-09-02T08:34:01;19.63;67.17
67868;SHT31;54672;46.096;14.470;2022-09-02T08:36:27;19.65;66.61
67868;SHT31;54672;46.096;14.470;2022-09-02T08:38:52;20.56;64.00
67868;SHT31;54672;46.096;14.470;2022-09-02T08:41:47;22.23;60.44
67868;SHT31;54672;46.096;14.470;2022-09-02T08:44:23;21.12;62.77
67868;SHT31;54672;46.096;14.470;2022-09-02T08:46:56;22.83;59.46
67868;SHT31;54672;46.096;14.470;2022-09-02T08:49:28;23.75;55.33
67868;SHT31;54672;46.096;14.470;2022-09-02T08:52:00;24.65;52.31
67868;SHT31;54672;46.096;14.470;2022-09-02T08:57:13;24.87;51.59
67868;SHT31;54672;46.096;14.470;2022-09-02T08:59:39;25.49;49.68
67868;SHT31;54672;46.096;14.470;2022-09-02T09:07:38;22.21;56.66
67868;SHT31;54672;46.096;14.470;2022-09-02T09:10:27;22.02;57.91
67868;SHT31;54672;46.096;14.470;2022-09-02T09:13:07;21.44;59.97
67868;SHT31;54672;46.096;14.470;2022-09-02T09:18:38;21.33;58.29
67868;SHT31;54672;46.096;14.470;2022-09-02T09:21:05;21.29;59.95
67868;SHT31;54672;46.096;14.470;2022-09-02T09:23:33;21.44;60.48
67868;SHT31;54672;46.096;14.470;2022-09-02T09:26:16;21.60;56.32
67868;SHT31;54672;46.096;14.470;2022-09-02T09:28:45;21.68;54.32
67868;SHT31;54672;46.096;14.470;2022-09-02T09:31:23;21.46;53.95
67868;SHT31;54672;46.096;14.470;2022-09-02T09:39:29;21.32;53.13
67868;SHT31;54672;46.096;14.470;2022-09-02T09:42:00;21.43;55.27
67868;SHT31;54672;46.096;14.470;2022-09-02T09:44:44;21.51;54.15
67868;SHT31;54672;46.096;14.470;2022-09-02T09:47:19;21.53;52.54
67868;SHT31;54672;46.096;14.470;2022-09-02T09:49:49;21.47;53.35
67868;SHT31;54672;46.096;14.470;2022-09-02T09:52:29;21.60;53.10
67868;SHT31;54672;46.096;14.470;2022-09-02T09:55:17;21.60;51.97
67868;SHT31;54672;46.096;14.470;2022-09-02T09:57:46;21.24;54.51
67868;SHT31;54672;46.096;14.470;2022-09-02T10:00:26;21.58;51.92
67868;SHT31;54672;46.096;14.470;2022-09-02T10:02:54;21.44;52.06
67868;SHT31;54672;46.096;14.470;2022-09-02T10:07:57;21.81;53.45
67868;SHT31;54672;46.096;14.470;2022-09-02T10:10:25;21.98;51.49
67868;SHT31;54672;46.096;14.470;2022-09-02T10:12:54;21.78;51.66
67868;SHT31;54672;46.096;14.470;2022-09-02T10:15:40;21.73;53.50
67868;SHT31;54672;46.096;14.470;2022-09-02T10:21:20;21.47;52.70
67868;SHT31;54672;46.096;14.470;2022-09-02T10:26:48;21.73;52.41
67868;SHT31;54672;46.096;14.470;2022-09-02T10:29:37;22.02;52.12
67868;SHT31;54672;46.096;14.470;2022-09-02T10:32:49;21.92;52.71
67868;SHT31;54672;46.096;14.470;2022-09-02T10:35:17;22.13;51.87
67868;SHT31;54672;46.096;14.470;2022-09-02T10:41:14;22.23;50.79
67868;SHT31;54672;46.096;14.470;2022-09-02T10:44:09;22.11;51.88
67868;SHT31;54672;46.096;14.470;2022-09-02T10:47:00;22.23;52.23
67868;SHT31;54672;46.096;14.470;2022-09-02T10:49:50;22.25;51.82
67868;SHT31;54672;46.096;14.470;2022-09-02T10:55:15;22.19;51.56
67868;SHT31;54672;46.096;14.470;2022-09-02T10:58:00;22.45;51.63
67868;SHT31;54672;46.096;14.470;2022-09-02T11:00:28;22.11;51.11
67868;SHT31;54672;46.096;14.470;2022-09-02T11:05:53;22.01;51.13
67868;SHT31;54672;46.096;14.470;2022-09-02T11:11:03;22.64;50.45
67868;SHT31;54672;46.096;14.470;2022-09-02T11:13:37;22.49;49.82
67868;SHT31;54672;46.096;14.470;2022-09-02T11:16:16;22.16;49.30
67868;SHT31;54672;46.096;14.470;2022-09-02T11:18:55;21.73;52.58
67868;SHT31;54672;46.096;14.470;2022-09-02T11:27:06;21.44;53.19
67868;SHT31;54672;46.096;14.470;2022-09-02T11:35:25;21.98;51.57
67868;SHT31;54672;46.096;14.470;2022-09-02T11:40:28;21.84;52.17
67868;SHT31;54672;46.096;14.470;2022-09-02T11:46:11;22.36;50.29
67868;SHT31;54672;46.096;14.470;2022-09-02T11:54:30;22.02;50.62
67868;SHT31;54672;46.096;14.470;2022-09-02T11:56:59;22.18;51.45
67868;SHT31;54672;46.096;14.470;2022-09-02T12:08:12;23.45;48.05
67868;SHT31;54672;46.096;14.470;2022-09-02T12:18:44;23.21;49.27
67868;SHT31;54672;46.096;14.470;2022-09-02T12:21:15;23.37;49.22
67868;SHT31;54672;46.096;14.470;2022-09-02T12:27:01;23.15;48.92
67868;SHT31;54672;46.096;14.470;2022-09-02T12:36:50;23.58;47.88
67868;SHT31;54672;46.096;14.470;2022-09-02T12:41:57;23.65;49.00
67868;SHT31;54672;46.096;14.470;2022-09-02T12:44:34;23.61;48.09
67868;SHT31;54672;46.096;14.470;2022-09-02T12:57:50;23.15;50.22
67868;SHT31;54672;46.096;14.470;2022-09-02T13:00:27;23.17;50.74
67868;SHT31;54672;46.096;14.470;2022-09-02T13:15:08;22.91;50.44
67868;SHT31;54672;46.096;14.470;2022-09-02T13:32:00;23.40;49.38
67868;SHT31;54672;46.096;14.470;2022-09-02T13:34:29;23.44;49.61
67868;SHT31;54672;46.096;14.470;2022-09-02T13:36:55;23.34;49.56
67868;SHT31;54672;46.096;14.470;2022-09-02T13:39:26;22.97;50.04
67868;SHT31;54672;46.096;14.470;2022-09-02T13:41:53;22.84;50.39
67868;SHT31;54672;46.096;14.470;2022-09-02T13:44:24;22.83;51.00
67868;SHT31;54672;46.096;14.470;2022-09-02T13:47:02;22.87;50.58
67868;SHT31;54672;46.096;14.470;2022-09-02T13:49:36;22.87;50.40
67868;SHT31;54672;46.096;14.470;2022-09-02T13:52:10;22.91;50.46
67868;SHT31;54672;46.096;14.470;2022-09-02T13:54:38;22.71;50.70
67868;SHT31;54672;46.096;14.470;2022-09-02T13:57:09;22.81;51.51
67868;SHT31;54672;46.096;14.470;2022-09-02T13:59:45;22.77;50.86
67868;SHT31;54672;46.096;14.470;2022-09-02T14:02:35;22.96;51.08
67868;SHT31;54672;46.096;14.470;2022-09-02T14:05:12;23.08;50.76
67868;SHT31;54672;46.096;14.470;2022-09-02T14:07:46;23.07;50.52
67868;SHT31;54672;46.096;14.470;2022-09-02T14:10:14;23.14;50.41
67868;SHT31;54672;46.096;14.470;2022-09-02T14:12:40;22.96;50.03
67868;SHT31;54672;46.096;14.470;2022-09-02T14:15:07;23.12;50.80
67868;SHT31;54672;46.096;14.470;2022-09-02T14:17:35;23.24;50.86
67868;SHT31;54672;46.096;14.470;2022-09-02T14:22:36;23.25;50.86
67868;SHT31;54672;46.096;14.470;2022-09-02T14:25:15;22.94;50.67
67868;SHT31;54672;46.096;14.470;2022-09-02T14:27:52;22.96;50.83
67868;SHT31;54672;46.096;14.470;2022-09-02T14:30:39;23.10;50.80
67868;SHT31;54672;46.096;14.470;2022-09-02T14:36:08;23.41;49.58
67868;SHT31;54672;46.096;14.470;2022-09-02T14:38:52;23.18;49.94
67868;SHT31;54672;46.096;14.470;2022-09-02T14:41:27;23.10;50.33
67868;SHT31;54672;46.096;14.470;2022-09-02T14:44:09;22.63;51.61
67868;SHT31;54672;46.096;14.470;2022-09-02T14:46:44;22.53;51.28
67868;SHT31;54672;46.096;14.470;2022-09-02T14:49:21;22.60;51.56
67868;SHT31;54672;46.096;14.470;2022-09-02T14:51:52;22.38;51.73
67868;SHT31;54672;46.096;14.470;2022-09-02T14:54:35;22.45;52.24
67868;SHT31;54672;46.096;14.470;2022-09-02T14:57:02;22.38;52.92
67868;SHT31;54672;46.096;14.470;2022-09-02T14:59:27;22.31;52.30
67868;SHT31;54672;46.096;14.470;2022-09-02T15:01:54;22.26;52.44
67868;SHT31;54672;46.096;14.470;2022-09-02T15:04:21;22.12;52.69
67868;SHT31;54672;46.096;14.470;2022-09-02T15:06:47;22.13;53.23
67868;SHT31;54672;46.096;14.470;2022-09-02T15:09:13;22.33;52.83
67868;SHT31;54672;46.096;14.470;2022-09-02T15:11:48;22.42;52.42
67868;SHT31;54672;46.096;14.470;2022-09-02T15:14:15;22.42;51.63
67868;SHT31;54672;46.096;14.470;2022-09-02T15:16:40;22.21;52.08
67868;SHT31;54672;46.096;14.470;2022-09-02T15:19:06;22.29;52.54
67868;SHT31;54672;46.096;14.470;2022-09-02T15:21:31;22.35;52.18
67868;SHT31;54672;46.096;14.470;2022-09-02T15:23:57;22.40;52.26
67868;SHT31;54672;46.096;14.470;2022-09-02T15:26:22;22.40;52.27
67868;SHT31;54672;46.096;14.470;2022-09-02T15:28:48;22.19;52.98
67868;SHT31;54672;46.096;14.470;2022-09-02T15:31:14;22.21;53.49
67868;SHT31;54672;46.096;14.470;2022-09-02T15:33:40;22.01;53.74
67868;SHT31;54672;46.096;14.470;2022-09-02T15:38:31;21.94;53.88
67868;SHT31;54672;46.096;14.470;2022-09-02T15:43:39;21.95;53.93
67868;SHT31;54672;46.096;14.470;2022-09-02T15:46:27;22.06;52.72
67868;SHT31;54672;46.096;14.470;2022-09-02T15:48:53;22.08;52.67
67868;SHT31;54672;46.096;14.470;2022-09-02T15:51:21;22.16;52.64
67868;SHT31;54672;46.096;14.470;2022-09-02T15:53:53;22.13;52.60
67868;SHT31;54672;46.096;14.470;2022-09-02T15:56:22;22.19;52.78
67868;SHT31;54672;46.096;14.470;2022-09-02T15:58:57;22.13;52.88
67868;SHT31;54672;46.096;14.470;2022-09-02T16:01:27;22.19;53.27
67868;SHT31;54672;46.096;14.470;2022-09-02T16:03:53;22.00;52.76
67868;SHT31;54672;46.096;14.470;2022-09-02T16:06:18;22.04;52.79
67868;SHT31;54672;46.096;14.470;2022-09-02T16:08:44;22.01;53.06
67868;SHT31;54672;46.096;14.470;2022-09-02T16:11:10;22.04;53.34
67868;SHT31;54672;46.096;14.470;2022-09-02T16:13:35;22.02;53.39
67868;SHT31;54672;46.096;14.470;2022-09-02T16:16:03;21.91;52.75
67868;SHT31;54672;46.096;14.470;2022-09-02T16:18:29;21.78;52.71
67868;SHT31;54672;46.096;14.470;2022-09-02T16:20:54;21.73;53.03
67868;SHT31;54672;46.096;14.470;2022-09-02T16:23:20;21.58;53.48
67868;SHT31;54672;46.096;14.470;2022-09-02T16:25:45;21.55;53.77
67868;SHT31;54672;46.096;14.470;2022-09-02T16:28:10;21.49;54.06
67868;SHT31;54672;46.096;14.470;2022-09-02T16:30:36;21.46;54.28
67868;SHT31;54672;46.096;14.470;2022-09-02T16:33:02;21.36;54.58
67868;SHT31;54672;46.096;14.470;2022-09-02T16:35:27;21.29;54.71
67868;SHT31;54672;46.096;14.470;2022-09-02T16:37:53;21.19;54.22
67868;SHT31;54672;46.096;14.470;2022-09-02T16:40:22;21.10;54.69
67868;SHT31;54672;46.096;14.470;2022-09-02T16:42:48;21.07;54.61
67868;SHT31;54672;46.096;14.470;2022-09-02T16:45:13;21.04;55.22
67868;SHT31;54672;46.096;14.470;2022-09-02T16:47:39;21.00;55.45
67868;SHT31;54672;46.096;14.470;2022-09-02T16:50:04;20.91;56.12
67868;SHT31;54672;46.096;14.470;2022-09-02T16:52:30;20.85;56.43
67868;SHT31;54672;46.096;14.470;2022-09-02T16:54:59;20.76;56.45
67868;SHT31;54672;46.096;14.470;2022-09-02T16:57:24;20.65;56.88
67868;SHT31;54672;46.096;14.470;2022-09-02T16:59:49;20.58;56.99
67868;SHT31;54672;46.096;14.470;2022-09-02T17:02:15;20.55;56.95
67868;SHT31;54672;46.096;14.470;2022-09-02T17:04:41;20.52;57.43
67868;SHT31;54672;46.096;14.470;2022-09-02T17:07:07;20.51;57.45
67868;SHT31;54672;46.096;14.470;2022-09-02T17:09:33;20.45;57.46
67868;SHT31;54672;46.096;14.470;2022-09-02T17:11:59;20.45;57.62
67868;SHT31;54672;46.096;14.470;2022-09-02T17:14:24;20.40;58.11
67868;SHT31;54672;46.096;14.470;2022-09-02T17:16:50;20.34;58.69
67868;SHT31;54672;46.096;14.470;2022-09-02T17:19:17;20.32;58.56
67868;SHT31;54672;46.096;14.470;2022-09-02T17:21:55;20.28;58.53
67868;SHT31;54672;46.096;14.470;2022-09-02T17:24:24;20.31;58.17
67868;SHT31;54672;46.096;14.470;2022-09-02T17:26:52;20.23;58.87
67868;SHT31;54672;46.096;14.470;2022-09-02T17:29:20;20.16;59.54
67868;SHT31;54672;46.096;14.470;2022-09-02T17:31:46;20.06;60.21
67868;SHT31;54672;46.096;14.470;2022-09-02T17:34:12;20.00;60.74
67868;SHT31;54672;46.096;14.470;2022-09-02T17:36:40;19.89;61.59
67868;SHT31;54672;46.096;14.470;2022-09-02T17:41:32;19.74;62.20
67868;SHT31;54672;46.096;14.470;2022-09-02T17:44:16;19.67;62.49
67868;SHT31;54672;46.096;14.470;2022-09-02T17:46:42;19.70;62.56